createdAt,value
2023-05-02T00:01:15.220Z,9.40
2023-05-02T00:03:43.683Z,9.40
2023-05-02T00:06:11.365Z,9.40
2023-05-02T00:08:38.157Z,9.30
2023-05-02T00:11:05.459Z,9.30
2023-05-02T00:13:33.508Z,9.30
2023-05-02T00:16:00.168Z,9.20
2023-05-02T00:18:26.966Z,9.20
2023-05-02T00:20:53.710Z,9.10
2023-05-02T00:23:20.439Z,9.10
2023-05-02T00:25:47.372Z,9.00
2023-05-02T00:28:14.034Z,9.00
2023-05-02T00:30:47.371Z,9.00
2023-05-02T00:33:15.779Z,9.00
2023-05-02T00:35:42.516Z,9.00
2023-05-02T00:38:09.307Z,9.00
2023-05-02T00:40:52.081Z,8.90
2023-05-02T00:43:18.916Z,8.90
2023-05-02T00:45:46.402Z,8.90
2023-05-02T00:48:13.637Z,8.80
2023-05-02T00:50:42.388Z,8.90
2023-05-02T00:53:12.174Z,8.80
2023-05-02T00:55:39.106Z,8.90
2023-05-02T00:58:10.068Z,8.90
2023-05-02T01:00:48.692Z,9.00
2023-05-02T01:03:41.309Z,9.00
2023-05-02T01:06:20.068Z,9.10
2023-05-02T01:08:56.216Z,9.20
2023-05-02T01:11:46.354Z,9.20
2023-05-02T01:14:15.010Z,9.30
2023-05-02T01:16:45.770Z,9.30
2023-05-02T01:19:51.133Z,9.30
2023-05-02T01:22:20.080Z,9.30
2023-05-02T01:25:06.040Z,9.30
2023-05-02T01:28:09.512Z,9.30
2023-05-02T01:30:38.666Z,9.20
2023-05-02T01:33:06.214Z,9.20
2023-05-02T01:35:35.157Z,9.10
2023-05-02T01:38:03.320Z,9.00
2023-05-02T01:40:30.721Z,8.90
2023-05-02T01:42:58.708Z,8.80
2023-05-02T01:45:28.033Z,8.70
2023-05-02T01:47:55.130Z,8.60
2023-05-02T01:50:24.612Z,8.50
2023-05-02T01:52:53.444Z,8.50
2023-05-02T01:55:20.575Z,8.40
2023-05-02T01:57:50.420Z,8.30
2023-05-02T02:00:18.532Z,8.20
2023-05-02T02:02:47.658Z,8.20
2023-05-02T02:05:16.059Z,8.20
2023-05-02T02:07:43.833Z,8.10
2023-05-02T02:10:11.143Z,8.10
2023-05-02T02:12:43.734Z,8.10
2023-05-02T02:15:18.491Z,8.10
2023-05-02T02:18:01.662Z,8.10
2023-05-02T02:20:29.853Z,8.10
2023-05-02T02:22:57.741Z,8.00
2023-05-02T02:25:26.965Z,8.00
2023-05-02T02:27:54.113Z,8.00
2023-05-02T02:30:20.925Z,8.00
2023-05-02T02:32:47.597Z,8.00
2023-05-02T02:35:14.432Z,8.00
2023-05-02T02:37:58.252Z,8.00
2023-05-02T02:40:29.843Z,8.00
2023-05-02T02:43:27.347Z,8.00
2023-05-02T02:46:12.352Z,7.90
2023-05-02T02:48:56.916Z,7.90
2023-05-02T02:51:32.025Z,7.90
2023-05-02T02:54:26.600Z,7.90
2023-05-02T02:57:07.656Z,7.90
2023-05-02T02:59:41.315Z,7.90
2023-05-02T03:02:09.952Z,7.90
2023-05-02T03:04:40.927Z,7.80
2023-05-02T03:07:08.091Z,7.80
2023-05-02T03:09:45.050Z,7.80
2023-05-02T03:12:12.171Z,7.80
2023-05-02T03:14:39.941Z,7.70
2023-05-02T03:17:08.413Z,7.70
2023-05-02T03:19:35.423Z,7.60
2023-05-02T03:22:02.069Z,7.60
2023-05-02T03:24:28.697Z,7.60
2023-05-02T03:26:56.626Z,7.60
2023-05-02T03:29:23.367Z,7.60
2023-05-02T03:31:50.839Z,7.60
2023-05-02T03:34:17.781Z,7.70
2023-05-02T03:36:44.444Z,7.70
2023-05-02T03:39:11.251Z,7.70
2023-05-02T03:41:38.069Z,7.70
2023-05-02T03:44:04.947Z,7.70
2023-05-02T03:46:31.663Z,7.80
2023-05-02T03:48:58.806Z,7.80
2023-05-02T03:51:25.705Z,7.90
2023-05-02T03:53:52.327Z,8.00
2023-05-02T03:56:23.157Z,8.00
2023-05-02T03:58:49.838Z,8.10
2023-05-02T04:01:17.121Z,8.10
2023-05-02T04:03:44.053Z,8.20
2023-05-02T04:06:11.101Z,8.20
2023-05-02T04:08:37.745Z,8.30
2023-05-02T04:11:04.490Z,8.30
2023-05-02T04:13:31.348Z,8.30
2023-05-02T04:15:57.986Z,8.30
2023-05-02T04:18:24.692Z,8.20
2023-05-02T04:20:51.510Z,8.20
2023-05-02T04:23:18.543Z,8.20
2023-05-02T04:25:57.371Z,8.20
2023-05-02T04:28:24.149Z,8.20
2023-05-02T04:30:51.543Z,8.10
2023-05-02T04:33:18.620Z,8.10
2023-05-02T04:35:45.431Z,8.10
2023-05-02T04:38:12.209Z,8.10
2023-05-02T04:40:39.112Z,8.10
2023-05-02T04:43:05.862Z,8.20
2023-05-02T04:45:32.614Z,8.20
2023-05-02T04:47:59.396Z,8.30
2023-05-02T04:50:28.105Z,8.30
2023-05-02T04:52:54.926Z,8.40
2023-05-02T04:55:21.699Z,8.40
2023-05-02T04:57:48.483Z,8.40
2023-05-02T05:00:15.833Z,8.40
2023-05-02T05:02:43.248Z,8.40
2023-05-02T05:05:10.194Z,8.40
2023-05-02T05:07:37.278Z,8.40
2023-05-02T05:10:04.099Z,8.40
2023-05-02T05:12:30.833Z,8.50
2023-05-02T05:14:57.664Z,8.70
2023-05-02T05:17:24.341Z,8.70
2023-05-02T05:19:51.048Z,8.70
2023-05-02T05:22:17.791Z,8.80
2023-05-02T05:24:54.100Z,8.90
2023-05-02T05:27:21.414Z,8.90
2023-05-02T05:29:48.362Z,9.00
2023-05-02T05:32:15.066Z,9.00
2023-05-02T05:34:41.952Z,9.10
2023-05-02T05:37:08.737Z,9.10
2023-05-02T05:39:35.426Z,9.20
2023-05-02T05:42:02.596Z,9.20
2023-05-02T05:44:29.411Z,9.20
2023-05-02T05:46:56.408Z,9.30
2023-05-02T05:49:24.248Z,9.30
2023-05-02T05:51:51.023Z,9.30
2023-05-02T05:54:18.561Z,9.40
2023-05-02T05:56:45.950Z,9.50
2023-05-02T05:59:12.756Z,9.60
2023-05-02T06:01:39.902Z,9.70
2023-05-02T06:04:07.659Z,9.60
2023-05-02T06:06:34.715Z,9.80
2023-05-02T06:09:01.920Z,9.80
2023-05-02T06:11:28.701Z,10.00
2023-05-02T06:13:55.702Z,10.10
2023-05-02T06:16:22.506Z,10.20
2023-05-02T06:18:50.899Z,10.20
2023-05-02T06:21:17.593Z,10.20
2023-05-02T06:23:44.331Z,10.20
2023-05-02T06:26:11.191Z,10.30
2023-05-02T06:28:37.980Z,10.30
2023-05-02T06:31:06.005Z,10.20
2023-05-02T06:33:33.944Z,10.30
2023-05-02T06:36:01.848Z,10.40
2023-05-02T06:38:29.793Z,10.30
2023-05-02T06:40:56.529Z,10.40
2023-05-02T06:43:23.196Z,10.50
2023-05-02T06:45:54.465Z,10.50
2023-05-02T06:48:21.632Z,10.50
2023-05-02T06:50:49.392Z,10.50
2023-05-02T06:53:16.297Z,10.60
2023-05-02T06:55:44.576Z,10.60
2023-05-02T06:58:11.360Z,10.60
2023-05-02T07:00:38.210Z,10.70
2023-05-02T07:03:04.986Z,10.80
2023-05-02T07:05:31.744Z,10.80
2023-05-02T07:07:58.653Z,10.70
2023-05-02T07:10:25.470Z,10.50
2023-05-02T07:12:52.192Z,10.40
2023-05-02T07:15:18.982Z,10.60
2023-05-02T07:17:47.753Z,10.40
2023-05-02T07:20:15.632Z,10.20
2023-05-02T07:22:43.167Z,10.20
2023-05-02T07:25:10.333Z,9.80
2023-05-02T07:27:37.066Z,9.90
2023-05-02T07:30:04.413Z,9.90
2023-05-02T07:32:31.708Z,9.90
2023-05-02T07:34:58.647Z,10.00
2023-05-02T07:37:25.364Z,10.00
2023-05-02T07:39:52.176Z,10.10
2023-05-02T07:42:18.815Z,10.10
2023-05-02T07:44:45.504Z,10.00
2023-05-02T07:47:12.142Z,10.10
2023-05-02T07:49:38.773Z,10.20
2023-05-02T07:52:05.753Z,10.30
2023-05-02T07:54:32.424Z,10.50
2023-05-02T07:57:02.327Z,10.30
2023-05-02T07:59:30.618Z,10.40
2023-05-02T08:01:57.432Z,10.30
2023-05-02T08:04:24.374Z,10.30
2023-05-02T08:06:51.645Z,10.30
2023-05-02T08:09:18.455Z,10.40
2023-05-02T08:11:45.198Z,10.50
2023-05-02T08:14:11.891Z,10.70
2023-05-02T08:16:38.812Z,10.80
2023-05-02T08:19:05.747Z,10.80
2023-05-02T08:21:32.632Z,11.00
2023-05-02T08:23:59.773Z,11.30
2023-05-02T08:26:27.225Z,11.70
2023-05-02T08:28:55.537Z,12.00
2023-05-02T08:31:22.441Z,12.00
2023-05-02T08:33:49.334Z,12.50
2023-05-02T08:36:17.866Z,12.50
2023-05-02T08:38:46.068Z,12.50
2023-05-02T08:41:17.753Z,12.60
2023-05-02T08:43:47.843Z,12.60
2023-05-02T08:46:17.287Z,12.40
2023-05-02T08:48:48.039Z,12.50
2023-05-02T08:51:16.929Z,12.50
2023-05-02T08:53:44.441Z,12.60
2023-05-02T08:56:12.522Z,12.80
2023-05-02T08:58:40.895Z,13.00
2023-05-02T09:01:16.391Z,13.00
2023-05-02T09:03:47.747Z,13.10
2023-05-02T09:06:20.651Z,13.40
2023-05-02T09:08:49.616Z,13.40
2023-05-02T09:11:17.149Z,13.70
2023-05-02T09:13:44.657Z,13.90
2023-05-02T09:16:25.702Z,13.90
2023-05-02T09:18:57.521Z,13.50
2023-05-02T09:21:26.656Z,13.80
2023-05-02T09:23:55.946Z,14.30
2023-05-02T09:26:33.617Z,14.20
2023-05-02T09:29:02.361Z,14.30
2023-05-02T09:34:13.772Z,14.70
2023-05-02T09:36:45.314Z,14.70
2023-05-02T09:39:14.078Z,14.60
2023-05-02T09:41:45.568Z,14.80
2023-05-02T09:44:14.212Z,14.90
2023-05-02T09:46:48.776Z,15.10
2023-05-02T09:49:18.864Z,14.70
2023-05-02T09:51:49.673Z,13.90
2023-05-02T09:54:38.938Z,14.00
2023-05-02T09:57:07.125Z,14.10
2023-05-02T09:59:34.007Z,14.60
2023-05-02T10:02:02.483Z,15.20
2023-05-02T10:04:31.617Z,15.30
2023-05-02T10:06:59.361Z,15.30
2023-05-02T10:09:27.933Z,15.40
2023-05-02T10:11:56.526Z,15.30
2023-05-02T10:14:27.790Z,14.90
2023-05-02T10:17:12.495Z,15.00
2023-05-02T10:19:48.937Z,15.20
2023-05-02T10:22:22.155Z,15.00
2023-05-02T10:24:53.367Z,15.00
2023-05-02T10:27:20.157Z,15.20
2023-05-02T10:29:47.504Z,15.60
2023-05-02T10:32:17.151Z,15.40
2023-05-02T10:34:44.414Z,15.20
2023-05-02T10:37:12.438Z,15.20
2023-05-02T10:39:39.202Z,15.10
2023-05-02T10:42:06.442Z,15.00
2023-05-02T10:44:37.583Z,15.10
2023-05-02T10:47:24.375Z,15.30
2023-05-02T10:50:02.253Z,15.30
2023-05-02T10:52:41.045Z,15.30
2023-05-02T10:55:20.221Z,15.10
2023-05-02T10:57:59.254Z,15.30
2023-05-02T11:00:30.884Z,15.50
2023-05-02T11:02:57.987Z,15.60
2023-05-02T11:05:25.965Z,16.20
2023-05-02T11:08:23.166Z,16.20
2023-05-02T11:10:50.095Z,16.20
2023-05-02T11:13:16.743Z,16.30
2023-05-02T11:15:43.390Z,16.30
2023-05-02T11:18:14.282Z,16.30
2023-05-02T11:20:42.951Z,16.50
2023-05-02T11:23:15.783Z,16.20
2023-05-02T11:25:44.719Z,16.20
2023-05-02T11:28:36.464Z,16.20
2023-05-02T11:31:04.815Z,16.50
2023-05-02T11:33:31.644Z,15.80
2023-05-02T11:35:58.805Z,16.00
2023-05-02T11:38:27.068Z,15.40
2023-05-02T11:40:59.232Z,15.60
2023-05-02T11:43:30.113Z,16.00
2023-05-02T11:45:59.855Z,15.90
2023-05-02T11:48:27.634Z,15.50
2023-05-02T11:51:05.790Z,15.40
2023-05-02T11:53:33.294Z,14.80
2023-05-02T11:56:04.630Z,14.70
2023-05-02T11:58:33.471Z,14.30
2023-05-02T12:01:15.197Z,14.40
2023-05-02T12:03:42.450Z,14.50
2023-05-02T12:06:12.675Z,14.50
2023-05-02T12:08:40.956Z,15.00
2023-05-02T12:11:07.744Z,15.00
2023-05-02T12:13:35.148Z,15.10
2023-05-02T12:16:02.454Z,15.30
2023-05-02T12:18:29.327Z,15.30
2023-05-02T12:20:56.916Z,14.90
2023-05-02T12:23:26.883Z,15.10
2023-05-02T12:25:53.632Z,15.10
2023-05-02T12:28:20.959Z,15.00
2023-05-02T12:30:49.665Z,14.80
2023-05-02T12:33:17.324Z,14.70
2023-05-02T12:35:46.709Z,14.60
2023-05-02T12:38:14.738Z,14.50
2023-05-02T12:40:57.574Z,14.40
2023-05-02T12:43:24.381Z,14.60
2023-05-02T12:45:53.774Z,14.60
2023-05-02T12:48:28.002Z,14.90
2023-05-02T12:50:55.559Z,14.90
2023-05-02T12:53:45.769Z,15.00
2023-05-02T12:56:13.448Z,15.20
2023-05-02T12:58:45.735Z,15.10
2023-05-02T13:01:13.632Z,15.10
2023-05-02T13:03:43.103Z,15.00
2023-05-02T13:06:10.115Z,14.90
2023-05-02T13:08:37.057Z,15.10
2023-05-02T13:11:04.552Z,15.50
2023-05-02T13:13:32.543Z,15.60
2023-05-02T13:15:59.294Z,15.20
2023-05-02T13:18:27.932Z,15.30
2023-05-02T13:20:54.721Z,15.50
2023-05-02T13:23:21.470Z,15.40
2023-05-02T13:25:48.187Z,14.90
2023-05-02T13:28:15.146Z,14.70
2023-05-02T13:30:42.026Z,14.40
2023-05-02T13:33:08.760Z,14.60
2023-05-02T13:35:35.696Z,14.70
2023-05-02T13:38:03.140Z,15.00
2023-05-02T13:40:29.788Z,15.00
2023-05-02T13:42:56.520Z,15.40
2023-05-02T13:45:23.254Z,15.80
2023-05-02T13:47:50.004Z,15.90
2023-05-02T13:50:16.910Z,16.10
2023-05-02T13:52:43.938Z,16.10
2023-05-02T13:55:10.684Z,16.20
2023-05-02T13:57:37.318Z,16.40
2023-05-02T14:00:04.899Z,16.10
2023-05-02T14:02:32.016Z,16.30
2023-05-02T14:04:58.863Z,16.10
2023-05-02T14:07:25.660Z,16.40
2023-05-02T14:09:52.369Z,16.70
2023-05-02T14:12:19.073Z,16.60
2023-05-02T14:14:45.960Z,16.50
2023-05-02T14:17:12.936Z,16.50
2023-05-02T14:19:39.634Z,16.60
2023-05-02T14:22:07.373Z,16.40
2023-05-02T14:24:34.065Z,16.20
2023-05-02T14:27:01.397Z,16.40
2023-05-02T14:29:28.075Z,16.70
2023-05-02T14:31:54.968Z,16.20
2023-05-02T14:34:22.132Z,15.90
2023-05-02T14:36:48.826Z,16.20
2023-05-02T14:39:15.605Z,15.90
2023-05-02T14:41:42.282Z,15.90
2023-05-02T14:44:08.980Z,15.50
2023-05-02T14:46:35.984Z,15.30
2023-05-02T14:49:02.938Z,15.20
2023-05-02T14:51:29.587Z,15.10
2023-05-02T14:53:56.583Z,15.00
2023-05-02T14:56:24.222Z,15.20
2023-05-02T14:58:51.411Z,15.30
2023-05-02T15:01:19.752Z,15.10
2023-05-02T15:04:03.349Z,15.10
2023-05-02T15:06:35.028Z,15.10
2023-05-02T15:09:02.366Z,15.30
2023-05-02T15:11:29.030Z,15.40
2023-05-02T15:13:58.485Z,15.50
2023-05-02T15:16:27.110Z,15.40
2023-05-02T15:18:54.342Z,15.50
2023-05-02T15:21:21.309Z,15.70
2023-05-02T15:23:48.039Z,15.70
2023-05-02T15:26:14.852Z,15.70
2023-05-02T15:28:42.586Z,15.60
2023-05-02T15:31:09.238Z,15.50
2023-05-02T15:33:37.374Z,15.70
2023-05-02T15:36:04.296Z,15.40
2023-05-02T15:38:31.031Z,15.50
2023-05-02T15:40:59.400Z,15.40
2023-05-02T15:43:26.850Z,15.30
2023-05-02T15:45:58.133Z,15.30
2023-05-02T15:48:28.737Z,15.30
2023-05-02T15:50:55.569Z,15.50
2023-05-02T15:53:22.997Z,15.60
2023-05-02T15:55:53.298Z,15.70
2023-05-02T15:58:20.620Z,15.60
2023-05-02T16:00:51.838Z,15.60
2023-05-02T16:03:18.630Z,15.40
2023-05-02T16:05:46.326Z,15.50
2023-05-02T16:08:13.193Z,15.50
2023-05-02T16:10:40.341Z,15.50
2023-05-02T16:13:07.032Z,15.40
2023-05-02T16:15:33.736Z,15.50
2023-05-02T16:18:00.430Z,15.50
2023-05-02T16:20:28.432Z,15.40
2023-05-02T16:22:55.585Z,15.40
2023-05-02T16:25:22.228Z,15.30
2023-05-02T16:27:49.024Z,15.40
2023-05-02T16:30:16.123Z,15.30
2023-05-02T16:32:43.092Z,15.30
2023-05-02T16:35:12.729Z,15.10
2023-05-02T16:37:41.126Z,15.10
2023-05-02T16:40:09.019Z,15.10
2023-05-02T16:42:36.358Z,15.30
2023-05-02T16:45:03.444Z,15.10
2023-05-02T16:47:30.144Z,15.20
2023-05-02T16:49:58.345Z,15.20
2023-05-02T16:52:26.457Z,15.30
2023-05-02T16:54:53.541Z,15.50
2023-05-02T16:57:21.543Z,15.50
2023-05-02T16:59:50.705Z,15.30
2023-05-02T17:02:19.978Z,15.20
2023-05-02T17:04:46.694Z,15.30
2023-05-02T17:07:13.368Z,15.40
2023-05-02T17:09:41.700Z,15.50
2023-05-02T17:12:10.621Z,15.50
2023-05-02T17:14:39.444Z,15.60
2023-05-02T17:17:06.254Z,15.70
2023-05-02T17:19:32.944Z,15.60
2023-05-02T17:22:00.610Z,15.30
2023-05-02T17:24:29.993Z,15.40
2023-05-02T17:26:57.150Z,15.30
2023-05-02T17:29:23.901Z,15.40
2023-05-02T17:31:51.097Z,15.30
2023-05-02T17:34:17.760Z,15.40
2023-05-02T17:36:45.100Z,15.10
2023-05-02T17:39:13.401Z,15.20
2023-05-02T17:41:40.171Z,15.00
2023-05-02T17:44:06.941Z,14.80
2023-05-02T17:46:33.761Z,14.70
2023-05-02T17:49:00.979Z,14.50
2023-05-02T17:51:28.217Z,14.20
2023-05-02T17:53:54.994Z,14.10
2023-05-02T17:56:21.988Z,13.90
2023-05-02T17:58:48.786Z,13.70
2023-05-02T18:01:17.552Z,13.60
2023-05-02T18:03:44.877Z,13.50
2023-05-02T18:06:16.723Z,13.40
2023-05-02T18:08:44.468Z,13.20
2023-05-02T18:11:18.707Z,13.10
2023-05-02T18:13:46.022Z,13.00
2023-05-02T18:16:13.884Z,13.00
2023-05-02T18:18:41.205Z,12.90
2023-05-02T18:21:09.298Z,12.70
2023-05-02T18:23:35.984Z,12.70
2023-05-02T18:26:03.206Z,12.50
2023-05-02T18:28:30.021Z,12.40
2023-05-02T18:30:56.796Z,12.30
2023-05-02T18:33:23.495Z,12.30
2023-05-02T18:35:50.308Z,12.10
2023-05-02T18:38:17.468Z,12.10
2023-05-02T18:40:44.263Z,12.00
2023-05-02T18:43:11.141Z,11.90
2023-05-02T18:45:37.905Z,11.70
2023-05-02T18:48:04.856Z,11.60
2023-05-02T18:50:31.675Z,11.60
2023-05-02T18:52:58.397Z,11.50
2023-05-02T18:55:25.440Z,11.40
2023-05-02T18:57:52.252Z,11.30
2023-05-02T19:00:20.388Z,11.30
2023-05-02T19:02:47.815Z,11.20
2023-05-02T19:05:15.098Z,11.10
2023-05-02T19:07:42.388Z,11.10
2023-05-02T19:10:10.990Z,11.00
2023-05-02T19:12:38.053Z,11.00
2023-05-02T19:15:06.560Z,10.90
2023-05-02T19:17:33.606Z,10.90
2023-05-02T19:20:00.464Z,10.80
2023-05-02T19:22:27.857Z,10.70
2023-05-02T19:24:55.183Z,10.70
2023-05-02T19:27:21.828Z,10.70
2023-05-02T19:29:48.565Z,10.70
2023-05-02T19:32:15.765Z,10.60
2023-05-02T19:34:42.535Z,10.60
2023-05-02T19:37:09.249Z,10.60
2023-05-02T19:39:36.133Z,10.60
2023-05-02T19:42:03.290Z,10.50
2023-05-02T19:44:30.724Z,10.50
2023-05-02T19:46:57.503Z,10.50
2023-05-02T19:49:24.200Z,10.50
2023-05-02T19:51:50.938Z,10.40
2023-05-02T19:54:17.591Z,10.40
2023-05-02T19:56:44.284Z,10.30
2023-05-02T19:59:11.084Z,10.20
2023-05-02T20:01:37.853Z,10.20
2023-05-02T20:04:04.752Z,10.10
2023-05-02T20:06:32.300Z,10.10
2023-05-02T20:08:59.189Z,10.00
2023-05-02T20:11:26.333Z,10.00
2023-05-02T20:13:54.242Z,10.00
2023-05-02T20:16:21.097Z,9.90
2023-05-02T20:18:47.964Z,9.90
2023-05-02T20:21:14.662Z,9.90
2023-05-02T20:23:43.329Z,9.90
2023-05-02T20:26:10.197Z,9.90
2023-05-02T20:28:37.812Z,10.00
2023-05-02T20:31:04.789Z,10.00
2023-05-02T20:33:43.947Z,10.00
2023-05-02T20:36:13.245Z,10.00
2023-05-02T20:38:42.329Z,9.90
2023-05-02T20:41:12.325Z,9.90
2023-05-02T20:43:39.725Z,9.90
2023-05-02T20:46:16.215Z,9.80
2023-05-02T20:48:43.259Z,9.80
2023-05-02T20:51:10.008Z,9.70
2023-05-02T20:53:37.979Z,9.60
2023-05-02T20:56:05.146Z,9.60
2023-05-02T20:58:32.165Z,9.50
2023-05-02T21:00:59.189Z,9.50
2023-05-02T21:03:27.510Z,9.40
2023-05-02T21:05:55.944Z,9.30
2023-05-02T21:08:23.294Z,9.20
2023-05-02T21:10:50.327Z,9.20
2023-05-02T21:13:17.569Z,9.20
2023-05-02T21:15:44.313Z,9.20
2023-05-02T21:18:11.368Z,9.10
2023-05-02T21:20:39.654Z,9.10
2023-05-02T21:23:06.461Z,9.00
2023-05-02T21:25:33.216Z,8.90
2023-05-02T21:27:59.971Z,8.90
2023-05-02T21:30:26.724Z,8.80
2023-05-02T21:32:53.460Z,8.70
2023-05-02T21:35:20.252Z,8.70
2023-05-02T21:37:46.915Z,8.60
2023-05-02T21:40:13.811Z,8.60
2023-05-02T21:42:40.962Z,8.60
2023-05-02T21:45:08.316Z,8.50
2023-05-02T21:47:35.116Z,8.50
2023-05-02T21:50:02.147Z,8.60
2023-05-02T21:52:29.327Z,8.60
2023-05-02T21:54:57.222Z,8.70
2023-05-02T21:57:23.849Z,8.80
2023-05-02T21:59:50.510Z,8.90
2023-05-02T22:02:17.376Z,8.90
2023-05-02T22:04:48.054Z,8.90
2023-05-02T22:07:16.035Z,8.90
2023-05-02T22:09:42.761Z,8.90
2023-05-02T22:12:09.554Z,8.80
2023-05-02T22:14:44.540Z,8.80
2023-05-02T22:17:12.376Z,8.70
2023-05-02T22:19:39.342Z,8.70
2023-05-02T22:22:06.634Z,8.60
2023-05-02T22:24:33.594Z,8.50
2023-05-02T22:27:00.233Z,8.50
2023-05-02T22:29:26.934Z,8.40
2023-05-02T22:31:53.658Z,8.30
2023-05-02T22:34:20.375Z,8.30
2023-05-02T22:36:47.137Z,8.30
2023-05-02T22:39:15.642Z,8.20
2023-05-02T22:41:43.050Z,8.20
2023-05-02T22:44:11.142Z,8.20
2023-05-02T22:46:39.070Z,8.20
2023-05-02T22:49:10.339Z,8.20
2023-05-02T22:51:40.048Z,8.20
2023-05-02T22:54:08.004Z,8.20
2023-05-02T22:56:35.012Z,8.20
2023-05-02T22:59:01.813Z,8.10
2023-05-02T23:01:28.673Z,8.20
2023-05-02T23:03:55.442Z,8.10
2023-05-02T23:06:22.333Z,8.10
2023-05-02T23:08:49.118Z,8.10
2023-05-02T23:11:15.968Z,8.00
2023-05-02T23:13:42.602Z,7.90
2023-05-02T23:16:09.362Z,7.80
2023-05-02T23:18:36.035Z,7.80
2023-05-02T23:21:04.329Z,7.70
2023-05-02T23:23:31.192Z,7.70
2023-05-02T23:25:58.358Z,7.70
2023-05-02T23:28:25.960Z,7.60
2023-05-02T23:30:53.606Z,7.60
2023-05-02T23:33:20.646Z,7.60
2023-05-02T23:35:47.574Z,7.70
2023-05-02T23:38:14.416Z,7.60
2023-05-02T23:40:41.126Z,7.70
2023-05-02T23:43:08.839Z,7.70
2023-05-02T23:45:35.695Z,7.70
2023-05-02T23:48:02.435Z,7.70
2023-05-02T23:50:29.148Z,7.70
2023-05-02T23:52:55.803Z,7.70
2023-05-02T23:55:22.552Z,7.80
2023-05-02T23:57:49.217Z,7.90
